createdAt,value
2022-11-07T14:28:51.268Z,72.44
2022-11-07T14:31:59.069Z,72.49
2022-11-07T14:35:08.407Z,72.45
2022-11-07T14:38:16.785Z,72.51
2022-11-07T14:41:22.412Z,72.31
2022-11-07T14:44:47.594Z,72.24
2022-11-07T14:47:53.898Z,72.13
2022-11-07T14:50:58.730Z,72.20
2022-11-07T14:54:09.867Z,72.05
2022-11-07T14:57:14.542Z,71.95
2022-11-07T15:00:21.320Z,71.86
2022-11-07T15:03:32.145Z,71.98
2022-11-07T15:06:43.296Z,71.90
2022-11-07T15:09:47.796Z,71.89
2022-11-07T15:12:53.039Z,71.94
2022-11-07T15:16:02.886Z,72.02
2022-11-07T15:19:08.430Z,71.93
2022-11-07T15:22:29.966Z,71.87
2022-11-07T15:25:38.267Z,71.87
2022-11-07T15:28:49.333Z,71.96
2022-11-07T15:31:52.807Z,71.77
2022-11-07T15:35:23.304Z,71.74
2022-11-07T15:38:22.907Z,71.74
2022-11-07T15:41:26.353Z,71.71
2022-11-07T15:44:29.858Z,71.73
2022-11-07T15:47:34.142Z,71.80
2022-11-07T15:50:42.710Z,71.98
2022-11-07T15:53:46.120Z,72.02
2022-11-07T15:56:54.462Z,71.99
2022-11-07T16:00:01.978Z,72.15
2022-11-07T16:03:05.581Z,72.26
2022-11-07T16:06:21.600Z,72.18
2022-11-07T16:09:26.229Z,72.24
2022-11-07T16:12:29.731Z,72.37
2022-11-07T16:15:34.361Z,72.43
2022-11-07T16:18:42.730Z,72.41
2022-11-07T16:21:47.404Z,72.55
2022-11-07T16:24:51.007Z,72.70
2022-11-07T16:27:56.312Z,72.69
2022-11-07T16:31:00.760Z,72.89
2022-11-07T16:34:04.277Z,72.88
2022-11-07T16:37:09.070Z,72.91
2022-11-07T16:40:17.455Z,73.03
2022-11-07T16:43:21.443Z,72.97
2022-11-07T16:46:26.900Z,73.15
2022-11-07T16:49:33.248Z,73.03
2022-11-07T16:52:36.689Z,73.08
2022-11-07T16:55:43.112Z,73.14
2022-11-07T16:58:46.519Z,73.13
2022-11-07T17:01:50.861Z,73.36
2022-11-07T17:04:55.385Z,73.48
2022-11-07T17:08:00.916Z,73.44
2022-11-07T17:11:04.724Z,73.45
2022-11-07T17:14:08.225Z,73.47
2022-11-07T17:17:14.060Z,73.57
2022-11-07T17:20:49.907Z,73.55
2022-11-07T17:23:45.402Z,73.63
2022-11-07T17:26:48.652Z,73.80
2022-11-07T17:29:54.163Z,73.70
2022-11-07T17:32:57.802Z,73.74
2022-11-07T17:36:01.713Z,73.60
2022-11-07T17:39:10.437Z,73.67
2022-11-07T17:42:14.102Z,73.68
2022-11-07T17:45:18.102Z,73.66
2022-11-07T17:48:21.401Z,73.78
2022-11-07T17:51:26.457Z,73.92
2022-11-07T17:54:29.938Z,73.77
2022-11-07T17:57:33.341Z,74.02
2022-11-07T18:00:36.763Z,74.12
2022-11-07T18:03:40.188Z,74.10
2022-11-07T18:06:44.136Z,74.10
2022-11-07T18:09:48.932Z,74.36
2022-11-07T18:12:52.770Z,74.29
2022-11-07T18:15:56.243Z,74.05
2022-11-07T18:19:01.215Z,74.17
2022-11-07T18:22:04.678Z,74.26
2022-11-07T18:25:09.291Z,74.19
2022-11-07T18:28:12.711Z,74.36
2022-11-07T18:31:18.701Z,74.45
2022-11-07T18:34:22.153Z,74.57
2022-11-07T18:37:25.672Z,74.43
2022-11-07T18:40:29.305Z,74.34
2022-11-07T18:43:33.082Z,74.37
2022-11-07T18:46:36.927Z,74.62
2022-11-07T18:49:40.334Z,74.53
2022-11-07T18:52:43.663Z,74.47
2022-11-07T18:55:55.586Z,74.39
2022-11-07T18:58:59.266Z,74.35
2022-11-07T19:02:02.640Z,74.37
2022-11-07T19:05:07.747Z,74.35
2022-11-07T19:08:11.229Z,74.43
2022-11-07T19:11:17.152Z,74.64
2022-11-07T19:14:20.614Z,74.62
2022-11-07T19:17:24.088Z,74.72
2022-11-07T19:20:27.640Z,74.78
2022-11-07T19:23:31.646Z,74.82
2022-11-07T19:26:35.103Z,74.95
2022-11-07T19:29:38.542Z,74.94
2022-11-07T19:32:42.109Z,75.10
2022-11-07T19:35:45.967Z,74.96
2022-11-07T19:38:50.413Z,75.10
2022-11-07T19:41:53.943Z,75.06
2022-11-07T19:44:57.445Z,75.06
2022-11-07T19:48:00.947Z,75.35
2022-11-07T19:51:07.294Z,75.50
2022-11-07T19:54:10.100Z,75.24
2022-11-07T19:57:13.556Z,75.26
2022-11-07T20:00:18.040Z,75.32
2022-11-07T20:03:21.702Z,75.41
2022-11-07T20:06:29.942Z,75.28
2022-11-07T20:09:33.348Z,75.17
2022-11-07T20:12:36.842Z,75.27
2022-11-07T20:15:40.946Z,75.37
2022-11-07T20:18:44.868Z,75.49
2022-11-07T20:21:48.151Z,75.49
2022-11-07T20:24:51.489Z,75.62
2022-11-07T20:27:55.010Z,75.54
2022-11-07T20:30:58.466Z,75.56
2022-11-07T20:34:04.595Z,75.57
2022-11-07T20:37:08.031Z,75.76
2022-11-07T20:40:13.855Z,75.76
2022-11-07T20:43:17.398Z,75.65
2022-11-07T20:46:21.203Z,75.92
2022-11-07T20:49:24.725Z,75.80
2022-11-07T20:52:28.274Z,75.77
2022-11-07T20:55:31.700Z,75.94
2022-11-07T20:58:37.131Z,75.85
2022-11-07T21:01:41.777Z,75.87
2022-11-07T21:05:11.236Z,75.84
2022-11-07T21:08:08.903Z,75.89
2022-11-07T21:11:13.340Z,75.95
2022-11-07T21:14:16.697Z,76.05
2022-11-07T21:17:20.015Z,76.04
2022-11-07T21:20:24.113Z,76.08
2022-11-07T21:23:27.583Z,76.29
2022-11-07T21:26:34.904Z,76.16
2022-11-07T21:29:38.477Z,76.31
2022-11-07T21:32:42.032Z,76.28
2022-11-07T21:35:45.531Z,76.32
2022-11-07T21:38:49.606Z,76.27
2022-11-07T21:41:53.046Z,76.35
2022-11-07T21:44:56.427Z,76.52
2022-11-07T21:47:59.850Z,76.67
2022-11-07T21:51:07.211Z,76.61
2022-11-07T21:54:11.546Z,76.78
2022-11-07T21:57:15.007Z,76.82
2022-11-07T22:00:19.359Z,76.89
2022-11-07T22:03:37.625Z,76.77
2022-11-07T22:06:46.873Z,76.71
2022-11-07T22:09:50.238Z,76.79
2022-11-07T22:12:53.714Z,76.95
2022-11-07T22:16:04.384Z,76.90
2022-11-07T22:19:12.241Z,76.69
2022-11-07T22:22:16.198Z,76.93
2022-11-07T22:25:19.631Z,77.01
2022-11-07T22:28:22.916Z,77.25
2022-11-07T22:31:29.639Z,77.20
2022-11-07T22:34:33.069Z,77.25
2022-11-07T22:37:36.571Z,77.27
2022-11-07T22:40:44.933Z,77.30
2022-11-07T22:43:48.987Z,77.18
2022-11-07T22:46:52.544Z,77.27
2022-11-07T22:49:55.951Z,77.36
2022-11-07T22:52:59.438Z,77.34
2022-11-07T22:56:08.583Z,77.42
2022-11-07T22:59:12.448Z,77.66
2022-11-07T23:02:16.077Z,77.79
2022-11-07T23:05:19.707Z,77.66
2022-11-07T23:08:23.106Z,77.55
2022-11-07T23:14:51.667Z,77.71
2022-11-07T23:17:55.164Z,77.81
2022-11-07T23:21:11.263Z,77.59
2022-11-07T23:24:14.148Z,77.76
2022-11-07T23:27:18.303Z,77.85
2022-11-07T23:30:21.765Z,77.84
2022-11-07T23:33:25.370Z,77.98
2022-11-07T23:36:28.871Z,78.15
2022-11-07T23:39:32.269Z,78.06
2022-11-07T23:42:35.770Z,78.06
2022-11-07T23:45:57.089Z,78.10
2022-11-07T23:49:18.821Z,78.08
2022-11-07T23:52:22.318Z,78.12
2022-11-07T23:55:41.077Z,78.15
2022-11-07T23:59:03.119Z,78.27
